AUA965R LOWW-ESSA
Flight info
| Callsign | AUA965R |
|---|---|
| Flight time | 2h 2m |
| Altitude | 36000 |
| Route | LANUX DCT VLM/N0454F360 DCT TOMTI DCT RUMAR DCT ARMOD Z228 NILUG |
| Aircraft | A320/M-SDE3FGHIRWY/LB1 |
Departure
| Time | 2026-04-21 07:55 |
|---|---|
| Airport | Vienna International Airport (LOWW) |
Arrival
| Time | 2026-04-21 09:57 |
|---|---|
| Airport | Stockholm-Arlanda Airport (ESSA) |
| Time | Latitude | Longitude | Altitude | Speed | Heading |
|---|---|---|---|---|---|
| 2026-04-21 07:20 | 48.11808 | 16.57041 | 618 ft | 0 kts | 205° |
| 2026-04-21 07:42 | 48.11813 | 16.57044 | 609 ft | 4 kts | 205° |
| 2026-04-21 07:42 | 48.11837 | 16.57062 | 623 ft | 4 kts | 205° |
| 2026-04-21 07:42 | 48.11861 | 16.57078 | 619 ft | 4 kts | 195° |
| 2026-04-21 07:43 | 48.11876 | 16.57078 | 609 ft | 1 kts | 116° |
| 2026-04-21 07:43 | 48.11885 | 16.57051 | 613 ft | 1 kts | 116° |
| 2026-04-21 07:43 | 48.11885 | 16.57050 | 613 ft | 0 kts | 116° |
| 2026-04-21 07:45 | 48.11873 | 16.57087 | 622 ft | 9 kts | 116° |
| 2026-04-21 07:45 | 48.11857 | 16.57166 | 614 ft | 7 kts | 95° |
| 2026-04-21 07:46 | 48.11847 | 16.57235 | 622 ft | 7 kts | 111° |
| 2026-04-21 07:46 | 48.11814 | 16.57344 | 617 ft | 10 kts | 108° |
| 2026-04-21 07:46 | 48.11808 | 16.57439 | 616 ft | 8 kts | 106° |
| 2026-04-21 07:46 | 48.11770 | 16.57486 | 615 ft | 8 kts | 161° |
| 2026-04-21 07:47 | 48.11661 | 16.57535 | 614 ft | 22 kts | 164° |
| 2026-04-21 07:47 | 48.11519 | 16.57594 | 620 ft | 20 kts | 164° |
| 2026-04-21 07:47 | 48.11388 | 16.57650 | 622 ft | 19 kts | 164° |
| 2026-04-21 07:47 | 48.11268 | 16.57699 | 616 ft | 17 kts | 165° |
| 2026-04-21 07:48 | 48.11145 | 16.57750 | 621 ft | 22 kts | 164° |
| 2026-04-21 07:48 | 48.10982 | 16.57820 | 617 ft | 24 kts | 164° |
| 2026-04-21 07:48 | 48.10825 | 16.57886 | 611 ft | 22 kts | 165° |
| 2026-04-21 07:48 | 48.10681 | 16.57946 | 611 ft | 21 kts | 164° |
| 2026-04-21 07:49 | 48.10548 | 16.58002 | 617 ft | 19 kts | 164° |
| 2026-04-21 07:49 | 48.10425 | 16.58054 | 612 ft | 18 kts | 164° |
| 2026-04-21 07:49 | 48.10312 | 16.58103 | 612 ft | 16 kts | 164° |
| 2026-04-21 07:49 | 48.10208 | 16.58147 | 615 ft | 15 kts | 164° |
| 2026-04-21 07:50 | 48.10111 | 16.58188 | 614 ft | 14 kts | 164° |
| 2026-04-21 07:50 | 48.10022 | 16.58225 | 612 ft | 13 kts | 164° |
| 2026-04-21 07:50 | 48.09941 | 16.58260 | 612 ft | 12 kts | 164° |
| 2026-04-21 07:50 | 48.09867 | 16.58292 | 617 ft | 10 kts | 164° |
| 2026-04-21 07:51 | 48.09801 | 16.58320 | 624 ft | 9 kts | 164° |
| 2026-04-21 07:51 | 48.09701 | 16.58362 | 621 ft | 20 kts | 164° |
| 2026-04-21 07:51 | 48.09575 | 16.58416 | 615 ft | 18 kts | 164° |
| 2026-04-21 07:51 | 48.09457 | 16.58466 | 614 ft | 17 kts | 164° |
| 2026-04-21 07:52 | 48.09349 | 16.58510 | 618 ft | 15 kts | 165° |
| 2026-04-21 07:52 | 48.09249 | 16.58550 | 611 ft | 14 kts | 165° |
| 2026-04-21 07:52 | 48.09157 | 16.58589 | 611 ft | 13 kts | 164° |
| 2026-04-21 07:52 | 48.09075 | 16.58625 | 617 ft | 12 kts | 163° |
| 2026-04-21 07:53 | 48.09000 | 16.58662 | 615 ft | 11 kts | 156° |
| 2026-04-21 07:53 | 48.08946 | 16.58726 | 609 ft | 9 kts | 126° |
| 2026-04-21 07:53 | 48.08924 | 16.58810 | 621 ft | 10 kts | 102° |
| 2026-04-21 07:53 | 48.08949 | 16.58953 | 623 ft | 15 kts | 56° |
| 2026-04-21 07:54 | 48.09030 | 16.59044 | 609 ft | 16 kts | 17° |
| 2026-04-21 07:54 | 48.09125 | 16.59021 | 611 ft | 0 kts | 343° |
| 2026-04-21 07:54 | 48.09168 | 16.59002 | 621 ft | 32 kts | 343° |
| 2026-04-21 07:54 | 48.09623 | 16.58807 | 617 ft | 102 kts | 345° |
| 2026-04-21 07:55 | 48.10477 | 16.58427 | 637 ft | 150 kts | 339° |
| 2026-04-21 07:55 | 48.11496 | 16.57964 | 1294 ft | 154 kts | 342° |
| 2026-04-21 07:55 | 48.12546 | 16.57741 | 2046 ft | 162 kts | 7° |
| 2026-04-21 07:55 | 48.13685 | 16.58421 | 2439 ft | 187 kts | 21° |
| 2026-04-21 07:56 | 48.14937 | 16.59275 | 2809 ft | 209 kts | 21° |
| 2026-04-21 07:56 | 48.16340 | 16.60214 | 3235 ft | 234 kts | 21° |
| 2026-04-21 07:56 | 48.17879 | 16.61240 | 3965 ft | 247 kts | 21° |
| 2026-04-21 07:56 | 48.19443 | 16.62364 | 4930 ft | 252 kts | 27° |
| 2026-04-21 07:57 | 48.20952 | 16.63677 | 5898 ft | 255 kts | 29° |
| 2026-04-21 07:57 | 48.22506 | 16.64958 | 6819 ft | 258 kts | 20° |
| 2026-04-21 07:57 | 48.24278 | 16.65471 | 7724 ft | 261 kts | 359° |
| 2026-04-21 07:57 | 48.26069 | 16.64934 | 8654 ft | 267 kts | 338° |
| 2026-04-21 07:58 | 48.27692 | 16.63578 | 9527 ft | 272 kts | 330° |
| 2026-04-21 07:58 | 48.29347 | 16.62095 | 10321 ft | 280 kts | 330° |
| 2026-04-21 07:58 | 48.31095 | 16.60541 | 10615 ft | 304 kts | 330° |
| 2026-04-21 07:58 | 48.32969 | 16.58883 | 11058 ft | 320 kts | 330° |
| 2026-04-21 07:59 | 48.34909 | 16.57169 | 11810 ft | 326 kts | 330° |
| 2026-04-21 07:59 | 48.36880 | 16.55422 | 12645 ft | 330 kts | 330° |
| 2026-04-21 07:59 | 48.38853 | 16.53668 | 13428 ft | 334 kts | 330° |
| 2026-04-21 07:59 | 48.40883 | 16.51861 | 14175 ft | 338 kts | 330° |
| 2026-04-21 08:00 | 48.42896 | 16.50069 | 14856 ft | 341 kts | 330° |
| 2026-04-21 08:00 | 48.44879 | 16.48027 | 15536 ft | 345 kts | 320° |
| 2026-04-21 08:00 | 48.46553 | 16.45412 | 16214 ft | 350 kts | 309° |
| 2026-04-21 08:00 | 48.47839 | 16.42303 | 16875 ft | 355 kts | 297° |
| 2026-04-21 08:01 | 48.48931 | 16.38926 | 17564 ft | 358 kts | 297° |
| 2026-04-21 08:01 | 48.50036 | 16.35535 | 18245 ft | 361 kts | 297° |
| 2026-04-21 08:01 | 48.51157 | 16.32121 | 18845 ft | 365 kts | 297° |
| 2026-04-21 08:02 | 48.53424 | 16.25221 | 20038 ft | 370 kts | 297° |
| 2026-04-21 08:02 | 48.54569 | 16.21722 | 20648 ft | 373 kts | 297° |
| 2026-04-21 08:02 | 48.55706 | 16.18235 | 21238 ft | 376 kts | 297° |
| 2026-04-21 08:02 | 48.56905 | 16.14693 | 21834 ft | 378 kts | 301° |
| 2026-04-21 08:03 | 48.58424 | 16.11453 | 22400 ft | 381 kts | 311° |
| 2026-04-21 08:03 | 48.60236 | 16.08488 | 22969 ft | 384 kts | 313° |
| 2026-04-21 08:03 | 48.62067 | 16.05526 | 23527 ft | 386 kts | 313° |
| 2026-04-21 08:03 | 48.63904 | 16.02543 | 23996 ft | 389 kts | 313° |
| 2026-04-21 08:04 | 48.65744 | 15.99549 | 24434 ft | 391 kts | 313° |
| 2026-04-21 08:04 | 48.67593 | 15.96529 | 24873 ft | 394 kts | 313° |
| 2026-04-21 08:04 | 48.69459 | 15.93467 | 25300 ft | 396 kts | 313° |
| 2026-04-21 08:04 | 48.71334 | 15.90385 | 25727 ft | 398 kts | 313° |
| 2026-04-21 08:05 | 48.73199 | 15.87314 | 26136 ft | 400 kts | 313° |
| 2026-04-21 08:05 | 48.75093 | 15.84199 | 26538 ft | 402 kts | 313° |
| 2026-04-21 08:05 | 48.76997 | 15.81074 | 26936 ft | 404 kts | 313° |
| 2026-04-21 08:05 | 48.78918 | 15.77921 | 27321 ft | 407 kts | 313° |
| 2026-04-21 08:06 | 48.80848 | 15.74751 | 27710 ft | 409 kts | 313° |
| 2026-04-21 08:06 | 48.82781 | 15.71573 | 28107 ft | 411 kts | 313° |
| 2026-04-21 08:06 | 48.84723 | 15.68367 | 28493 ft | 413 kts | 312° |
| 2026-04-21 08:06 | 48.86656 | 15.65191 | 28837 ft | 415 kts | 314° |
| 2026-04-21 08:07 | 48.88837 | 15.62298 | 29185 ft | 418 kts | 323° |
| 2026-04-21 08:07 | 48.91323 | 15.59954 | 29523 ft | 421 kts | 332° |
| 2026-04-21 08:07 | 48.94011 | 15.58132 | 29852 ft | 423 kts | 335° |
| 2026-04-21 08:07 | 48.96725 | 15.56353 | 30166 ft | 425 kts | 335° |
| 2026-04-21 08:08 | 48.98540 | 15.55157 | 30343 ft | 427 kts | 335° |
| 2026-04-21 08:08 | 49.02165 | 15.52751 | 30663 ft | 429 kts | 335° |
| 2026-04-21 08:08 | 49.04907 | 15.50925 | 30881 ft | 431 kts | 335° |
| 2026-04-21 08:08 | 49.07677 | 15.49075 | 31109 ft | 433 kts | 335° |
| 2026-04-21 08:09 | 49.10443 | 15.47225 | 31364 ft | 434 kts | 335° |
| 2026-04-21 08:09 | 49.13180 | 15.45393 | 31655 ft | 434 kts | 335° |
| 2026-04-21 08:09 | 49.15956 | 15.43532 | 31938 ft | 434 kts | 335° |
| 2026-04-21 08:09 | 49.18730 | 15.41674 | 32266 ft | 434 kts | 335° |
| 2026-04-21 08:10 | 49.21496 | 15.39822 | 32575 ft | 434 kts | 335° |
| 2026-04-21 08:10 | 49.24263 | 15.37969 | 32876 ft | 434 kts | 335° |
| 2026-04-21 08:10 | 49.27013 | 15.36127 | 33178 ft | 434 kts | 335° |
| 2026-04-21 08:10 | 49.29787 | 15.34269 | 33489 ft | 434 kts | 335° |
| 2026-04-21 08:11 | 49.32561 | 15.32408 | 33785 ft | 435 kts | 335° |
| 2026-04-21 08:11 | 49.35336 | 15.30537 | 34102 ft | 435 kts | 335° |
| 2026-04-21 08:11 | 49.37164 | 15.29300 | 34271 ft | 435 kts | 335° |
| 2026-04-21 08:11 | 49.40845 | 15.26805 | 34619 ft | 435 kts | 335° |
| 2026-04-21 08:12 | 49.43610 | 15.24930 | 34859 ft | 435 kts | 335° |
| 2026-04-21 08:12 | 49.45445 | 15.23686 | 35024 ft | 435 kts | 335° |
| 2026-04-21 08:12 | 49.49130 | 15.21190 | 35329 ft | 435 kts | 335° |
| 2026-04-21 08:12 | 49.51010 | 15.19917 | 35485 ft | 435 kts | 335° |
| 2026-04-21 08:13 | 49.53772 | 15.18047 | 35715 ft | 435 kts | 335° |
| 2026-04-21 08:13 | 49.56556 | 15.16155 | 35934 ft | 435 kts | 335° |
| 2026-04-21 08:13 | 49.59329 | 15.14263 | 36089 ft | 436 kts | 335° |
| 2026-04-21 08:14 | 49.64833 | 15.10500 | 36142 ft | 434 kts | 335° |
| 2026-04-21 08:14 | 49.70582 | 15.07641 | 36146 ft | 436 kts | 351° |
| 2026-04-21 08:15 | 49.76658 | 15.07772 | 36149 ft | 438 kts | 5° |
| 2026-04-21 08:15 | 49.82692 | 15.08849 | 36150 ft | 439 kts | 5° |
| 2026-04-21 08:16 | 49.88768 | 15.09925 | 36152 ft | 439 kts | 5° |
| 2026-04-21 08:16 | 49.94848 | 15.11017 | 36157 ft | 439 kts | 5° |
| 2026-04-21 08:17 | 50.00885 | 15.12093 | 36155 ft | 439 kts | 5° |
| 2026-04-21 08:17 | 50.06957 | 15.13178 | 36158 ft | 439 kts | 5° |
| 2026-04-21 08:18 | 50.13024 | 15.14264 | 36155 ft | 439 kts | 5° |
| 2026-04-21 08:18 | 50.19077 | 15.15353 | 36157 ft | 439 kts | 5° |
| 2026-04-21 08:19 | 50.25150 | 15.16453 | 36165 ft | 439 kts | 5° |
| 2026-04-21 08:19 | 50.31188 | 15.17547 | 36167 ft | 439 kts | 5° |
| 2026-04-21 08:20 | 50.37263 | 15.18648 | 36165 ft | 439 kts | 5° |
| 2026-04-21 08:20 | 50.43341 | 15.19758 | 36170 ft | 439 kts | 5° |
| 2026-04-21 08:21 | 50.49388 | 15.20862 | 36179 ft | 439 kts | 5° |
| 2026-04-21 08:21 | 50.55475 | 15.21980 | 36174 ft | 438 kts | 6° |
| 2026-04-21 08:22 | 50.61524 | 15.23088 | 36181 ft | 438 kts | 6° |
| 2026-04-21 08:22 | 50.67567 | 15.24191 | 36187 ft | 438 kts | 6° |
| 2026-04-21 08:23 | 50.73649 | 15.25312 | 36197 ft | 438 kts | 6° |
| 2026-04-21 08:23 | 50.79670 | 15.26431 | 36205 ft | 437 kts | 6° |
| 2026-04-21 08:24 | 50.85704 | 15.27552 | 36218 ft | 436 kts | 6° |
| 2026-04-21 08:24 | 50.91765 | 15.28670 | 36223 ft | 435 kts | 6° |
| 2026-04-21 08:25 | 50.97742 | 15.29764 | 36217 ft | 435 kts | 6° |
| 2026-04-21 08:25 | 51.03770 | 15.30810 | 36205 ft | 436 kts | 6° |
| 2026-04-21 08:26 | 51.09815 | 15.31854 | 36213 ft | 436 kts | 6° |
| 2026-04-21 08:26 | 51.15845 | 15.32910 | 36212 ft | 437 kts | 6° |
| 2026-04-21 08:27 | 51.21873 | 15.33964 | 36218 ft | 437 kts | 6° |
| 2026-04-21 08:27 | 51.27925 | 15.35018 | 36225 ft | 438 kts | 6° |
| 2026-04-21 08:28 | 51.33996 | 15.36085 | 36237 ft | 438 kts | 6° |
| 2026-04-21 08:28 | 51.40032 | 15.37155 | 36245 ft | 438 kts | 7° |
| 2026-04-21 08:29 | 51.46087 | 15.38237 | 36246 ft | 439 kts | 7° |
| 2026-04-21 08:29 | 51.52158 | 15.39310 | 36253 ft | 439 kts | 7° |
| 2026-04-21 08:30 | 51.58249 | 15.40391 | 36257 ft | 439 kts | 7° |
| 2026-04-21 08:30 | 51.64289 | 15.41481 | 36263 ft | 439 kts | 7° |
| 2026-04-21 08:31 | 51.70378 | 15.42573 | 36264 ft | 439 kts | 7° |
| 2026-04-21 08:31 | 51.76465 | 15.43660 | 36266 ft | 439 kts | 7° |
| 2026-04-21 08:32 | 51.82537 | 15.44747 | 36275 ft | 439 kts | 7° |
| 2026-04-21 08:32 | 51.88597 | 15.45840 | 36271 ft | 439 kts | 7° |
| 2026-04-21 08:33 | 51.94670 | 15.46939 | 36280 ft | 439 kts | 7° |
| 2026-04-21 08:33 | 52.00723 | 15.48041 | 36278 ft | 439 kts | 7° |
| 2026-04-21 08:34 | 52.06782 | 15.49147 | 36278 ft | 438 kts | 8° |
| 2026-04-21 08:34 | 52.12837 | 15.50252 | 36284 ft | 438 kts | 8° |
| 2026-04-21 08:35 | 52.18881 | 15.51352 | 36279 ft | 437 kts | 8° |
| 2026-04-21 08:35 | 52.24934 | 15.52451 | 36281 ft | 437 kts | 8° |
| 2026-04-21 08:36 | 52.30990 | 15.53566 | 36282 ft | 437 kts | 8° |
| 2026-04-21 08:36 | 52.37000 | 15.54683 | 36282 ft | 436 kts | 8° |
| 2026-04-21 08:37 | 52.43050 | 15.55802 | 36283 ft | 436 kts | 8° |
| 2026-04-21 08:37 | 52.49055 | 15.56911 | 36285 ft | 436 kts | 8° |
| 2026-04-21 08:38 | 52.55074 | 15.58025 | 36285 ft | 435 kts | 8° |
| 2026-04-21 08:38 | 52.61097 | 15.59159 | 36289 ft | 435 kts | 8° |
| 2026-04-21 08:39 | 52.67083 | 15.60280 | 36290 ft | 435 kts | 9° |
| 2026-04-21 08:39 | 52.73100 | 15.61397 | 36298 ft | 435 kts | 8° |
| 2026-04-21 08:40 | 52.79094 | 15.62513 | 36299 ft | 435 kts | 9° |
| 2026-04-21 08:40 | 52.85123 | 15.63657 | 36298 ft | 434 kts | 9° |
| 2026-04-21 08:41 | 52.91110 | 15.64799 | 36301 ft | 434 kts | 9° |
| 2026-04-21 08:41 | 52.97119 | 15.65931 | 36305 ft | 434 kts | 9° |
| 2026-04-21 08:42 | 53.03114 | 15.67065 | 36305 ft | 435 kts | 9° |
| 2026-04-21 08:42 | 53.09128 | 15.68207 | 36304 ft | 435 kts | 9° |
| 2026-04-21 08:43 | 53.15152 | 15.69365 | 36308 ft | 435 kts | 9° |
| 2026-04-21 08:43 | 53.21144 | 15.70517 | 36308 ft | 435 kts | 9° |
| 2026-04-21 08:44 | 53.27177 | 15.71678 | 36308 ft | 434 kts | 9° |
| 2026-04-21 08:44 | 53.33149 | 15.72834 | 36313 ft | 434 kts | 10° |
| 2026-04-21 08:45 | 53.39189 | 15.74001 | 36314 ft | 434 kts | 10° |
| 2026-04-21 08:45 | 53.45149 | 15.75153 | 36310 ft | 434 kts | 10° |
| 2026-04-21 08:46 | 53.51158 | 15.76327 | 36322 ft | 434 kts | 10° |
| 2026-04-21 08:46 | 53.57150 | 15.77501 | 36317 ft | 434 kts | 10° |
| 2026-04-21 08:47 | 53.63172 | 15.78682 | 36337 ft | 435 kts | 10° |
| 2026-04-21 08:47 | 53.69155 | 15.79850 | 36342 ft | 435 kts | 10° |
| 2026-04-21 08:48 | 53.75184 | 15.81033 | 36336 ft | 434 kts | 10° |
| 2026-04-21 08:48 | 53.81188 | 15.82213 | 36343 ft | 434 kts | 11° |
| 2026-04-21 08:49 | 53.87160 | 15.83396 | 36345 ft | 434 kts | 11° |
| 2026-04-21 08:49 | 53.93171 | 15.84597 | 36344 ft | 434 kts | 11° |
| 2026-04-21 08:50 | 53.99172 | 15.85792 | 36345 ft | 434 kts | 11° |
| 2026-04-21 08:50 | 54.05142 | 15.86980 | 36349 ft | 434 kts | 11° |
| 2026-04-21 08:51 | 54.11152 | 15.88176 | 36350 ft | 434 kts | 11° |
| 2026-04-21 08:51 | 54.17120 | 15.89373 | 36355 ft | 433 kts | 11° |
| 2026-04-21 08:52 | 54.23140 | 15.90587 | 36357 ft | 433 kts | 11° |
| 2026-04-21 08:52 | 54.29124 | 15.91791 | 36360 ft | 433 kts | 11° |
| 2026-04-21 08:53 | 54.35105 | 15.92999 | 36358 ft | 433 kts | 11° |
| 2026-04-21 08:53 | 54.41049 | 15.94203 | 36364 ft | 432 kts | 11° |
| 2026-04-21 08:54 | 54.47046 | 15.95433 | 36365 ft | 432 kts | 11° |
| 2026-04-21 08:54 | 54.53011 | 15.96653 | 36366 ft | 432 kts | 11° |
| 2026-04-21 08:55 | 54.58954 | 15.97869 | 36367 ft | 431 kts | 11° |
| 2026-04-21 08:55 | 54.64933 | 15.99095 | 36369 ft | 431 kts | 11° |
| 2026-04-21 08:56 | 54.70854 | 16.00314 | 36374 ft | 431 kts | 11° |
| 2026-04-21 08:56 | 54.76816 | 16.01545 | 36373 ft | 430 kts | 11° |
| 2026-04-21 08:57 | 54.82746 | 16.02771 | 36374 ft | 430 kts | 11° |
| 2026-04-21 08:57 | 54.88685 | 16.04016 | 36376 ft | 429 kts | 11° |
| 2026-04-21 08:58 | 54.94628 | 16.05249 | 36374 ft | 429 kts | 11° |
| 2026-04-21 08:58 | 54.99544 | 16.06277 | 36379 ft | 428 kts | 11° |
| 2026-04-21 08:59 | 55.05367 | 16.08038 | 36375 ft | 423 kts | 20° |
| 2026-04-21 08:59 | 55.11060 | 16.10815 | 36375 ft | 423 kts | 19° |
| 2026-04-21 09:00 | 55.16710 | 16.13552 | 36378 ft | 423 kts | 19° |
| 2026-04-21 09:00 | 55.22377 | 16.16317 | 36381 ft | 422 kts | 19° |
| 2026-04-21 09:01 | 55.28064 | 16.19102 | 36385 ft | 422 kts | 19° |
| 2026-04-21 09:01 | 55.33668 | 16.21841 | 36384 ft | 422 kts | 19° |
| 2026-04-21 09:02 | 55.39332 | 16.24625 | 36382 ft | 421 kts | 19° |
| 2026-04-21 09:02 | 55.44980 | 16.27422 | 36385 ft | 421 kts | 19° |
| 2026-04-21 09:03 | 55.53411 | 16.31595 | 36391 ft | 420 kts | 19° |
| 2026-04-21 09:03 | 55.59061 | 16.34399 | 36386 ft | 420 kts | 19° |
| 2026-04-21 09:04 | 55.64663 | 16.37198 | 36390 ft | 420 kts | 19° |
| 2026-04-21 09:04 | 55.70308 | 16.40014 | 36387 ft | 420 kts | 19° |
| 2026-04-21 09:05 | 55.75916 | 16.42825 | 36389 ft | 419 kts | 19° |
| 2026-04-21 09:05 | 55.81542 | 16.45659 | 36391 ft | 419 kts | 19° |
| 2026-04-21 09:06 | 55.87161 | 16.48486 | 36389 ft | 420 kts | 19° |
| 2026-04-21 09:06 | 55.92772 | 16.51325 | 36393 ft | 420 kts | 19° |
| 2026-04-21 09:07 | 55.98378 | 16.54169 | 36394 ft | 420 kts | 19° |
| 2026-04-21 09:07 | 56.03992 | 16.57034 | 36392 ft | 419 kts | 19° |
| 2026-04-21 09:08 | 56.09596 | 16.59887 | 36395 ft | 419 kts | 19° |
| 2026-04-21 09:08 | 56.15208 | 16.62769 | 36392 ft | 419 kts | 19° |
| 2026-04-21 09:09 | 56.20824 | 16.65662 | 36392 ft | 419 kts | 19° |
| 2026-04-21 09:09 | 56.26404 | 16.68538 | 36397 ft | 419 kts | 19° |
| 2026-04-21 09:10 | 56.32015 | 16.71439 | 36401 ft | 419 kts | 19° |
| 2026-04-21 09:10 | 56.37600 | 16.74332 | 36402 ft | 419 kts | 19° |
| 2026-04-21 09:11 | 56.43208 | 16.77247 | 36405 ft | 418 kts | 19° |
| 2026-04-21 09:11 | 56.48806 | 16.80169 | 36403 ft | 418 kts | 19° |
| 2026-04-21 09:12 | 56.54373 | 16.83077 | 36404 ft | 418 kts | 19° |
| 2026-04-21 09:12 | 56.60002 | 16.86038 | 36404 ft | 417 kts | 19° |
| 2026-04-21 09:13 | 56.65558 | 16.88970 | 36411 ft | 417 kts | 19° |
| 2026-04-21 09:13 | 56.71140 | 16.91909 | 36402 ft | 417 kts | 19° |
| 2026-04-21 09:14 | 56.76707 | 16.94855 | 36406 ft | 417 kts | 19° |
| 2026-04-21 09:14 | 56.82278 | 16.97803 | 36407 ft | 417 kts | 19° |
| 2026-04-21 09:15 | 56.87827 | 17.00760 | 36399 ft | 416 kts | 19° |
| 2026-04-21 09:15 | 56.93383 | 17.03741 | 36397 ft | 416 kts | 19° |
| 2026-04-21 09:16 | 56.98959 | 17.06735 | 36409 ft | 416 kts | 19° |
| 2026-04-21 09:16 | 57.04493 | 17.09714 | 36406 ft | 416 kts | 19° |
| 2026-04-21 09:17 | 57.10061 | 17.12715 | 36410 ft | 416 kts | 19° |
| 2026-04-21 09:17 | 57.15597 | 17.15720 | 36409 ft | 416 kts | 19° |
| 2026-04-21 09:18 | 57.21124 | 17.18729 | 36411 ft | 416 kts | 19° |
| 2026-04-21 09:18 | 57.26668 | 17.21752 | 36407 ft | 415 kts | 19° |
| 2026-04-21 09:19 | 57.32230 | 17.24798 | 36402 ft | 415 kts | 19° |
| 2026-04-21 09:19 | 57.37740 | 17.27806 | 36410 ft | 415 kts | 18° |
| 2026-04-21 09:20 | 57.43295 | 17.30863 | 36407 ft | 414 kts | 19° |
| 2026-04-21 09:20 | 57.48797 | 17.33902 | 36400 ft | 414 kts | 18° |
| 2026-04-21 09:21 | 57.54372 | 17.36598 | 36409 ft | 415 kts | 14° |
| 2026-04-21 09:21 | 57.60018 | 17.38722 | 36400 ft | 415 kts | 13° |
| 2026-04-21 09:22 | 57.65702 | 17.40797 | 36399 ft | 415 kts | 13° |
| 2026-04-21 09:22 | 57.71330 | 17.42986 | 36399 ft | 415 kts | 14° |
| 2026-04-21 09:23 | 57.76967 | 17.45267 | 36394 ft | 414 kts | 14° |
| 2026-04-21 09:23 | 57.82602 | 17.47545 | 36393 ft | 414 kts | 14° |
| 2026-04-21 09:24 | 57.85430 | 17.48684 | 35881 ft | 416 kts | 14° |
| 2026-04-21 09:24 | 57.88293 | 17.49837 | 34731 ft | 424 kts | 14° |
| 2026-04-21 09:24 | 57.91195 | 17.51006 | 33640 ft | 425 kts | 14° |
| 2026-04-21 09:24 | 57.94065 | 17.52162 | 32667 ft | 424 kts | 14° |
| 2026-04-21 09:25 | 57.96916 | 17.53308 | 32058 ft | 415 kts | 15° |
| 2026-04-21 09:25 | 57.99717 | 17.54438 | 31485 ft | 407 kts | 15° |
| 2026-04-21 09:25 | 58.02466 | 17.55554 | 30926 ft | 400 kts | 15° |
| 2026-04-21 09:25 | 58.05149 | 17.56645 | 30340 ft | 394 kts | 15° |
| 2026-04-21 09:26 | 58.07806 | 17.57726 | 29782 ft | 387 kts | 15° |
| 2026-04-21 09:26 | 58.10413 | 17.58792 | 29240 ft | 380 kts | 15° |
| 2026-04-21 09:26 | 58.12974 | 17.59840 | 28718 ft | 373 kts | 15° |
| 2026-04-21 09:26 | 58.15496 | 17.60872 | 28218 ft | 367 kts | 15° |
| 2026-04-21 09:27 | 58.17974 | 17.61884 | 27726 ft | 361 kts | 15° |
| 2026-04-21 09:27 | 58.20418 | 17.62885 | 27212 ft | 356 kts | 15° |
| 2026-04-21 09:27 | 58.22797 | 17.63863 | 26749 ft | 352 kts | 15° |
| 2026-04-21 09:27 | 58.25188 | 17.64849 | 26277 ft | 348 kts | 15° |
| 2026-04-21 09:28 | 58.27550 | 17.65829 | 25827 ft | 344 kts | 15° |
| 2026-04-21 09:28 | 58.29863 | 17.66786 | 25381 ft | 340 kts | 15° |
| 2026-04-21 09:28 | 58.32145 | 17.67729 | 24957 ft | 336 kts | 15° |
| 2026-04-21 09:28 | 58.34420 | 17.68671 | 24531 ft | 332 kts | 16° |
| 2026-04-21 09:29 | 58.36661 | 17.69596 | 24116 ft | 328 kts | 16° |
| 2026-04-21 09:29 | 58.38915 | 17.70528 | 23661 ft | 324 kts | 16° |
| 2026-04-21 09:29 | 58.41070 | 17.71422 | 23266 ft | 318 kts | 15° |
| 2026-04-21 09:29 | 58.43231 | 17.72320 | 22872 ft | 316 kts | 15° |
| 2026-04-21 09:30 | 58.45365 | 17.73211 | 22484 ft | 315 kts | 15° |
| 2026-04-21 09:30 | 58.47508 | 17.74104 | 22091 ft | 313 kts | 15° |
| 2026-04-21 09:30 | 58.49615 | 17.74984 | 21705 ft | 312 kts | 15° |
| 2026-04-21 09:30 | 58.51739 | 17.75875 | 21296 ft | 311 kts | 15° |
| 2026-04-21 09:31 | 58.53841 | 17.76759 | 20893 ft | 310 kts | 15° |
| 2026-04-21 09:31 | 58.55953 | 17.77646 | 20476 ft | 309 kts | 15° |
| 2026-04-21 09:31 | 58.58048 | 17.78527 | 20067 ft | 308 kts | 15° |
| 2026-04-21 09:31 | 58.60145 | 17.79411 | 19634 ft | 306 kts | 15° |
| 2026-04-21 09:32 | 58.62215 | 17.80283 | 19235 ft | 305 kts | 15° |
| 2026-04-21 09:32 | 58.64264 | 17.81144 | 18825 ft | 304 kts | 15° |
| 2026-04-21 09:32 | 58.66340 | 17.82016 | 18372 ft | 304 kts | 15° |
| 2026-04-21 09:32 | 58.68405 | 17.82883 | 17959 ft | 302 kts | 15° |
| 2026-04-21 09:33 | 58.70441 | 17.83741 | 17548 ft | 301 kts | 15° |
| 2026-04-21 09:33 | 58.72489 | 17.84606 | 17144 ft | 300 kts | 15° |
| 2026-04-21 09:33 | 58.74532 | 17.85475 | 16743 ft | 299 kts | 15° |
| 2026-04-21 09:33 | 58.76565 | 17.86338 | 16331 ft | 298 kts | 14° |
| 2026-04-21 09:34 | 58.78586 | 17.87194 | 15944 ft | 297 kts | 14° |
| 2026-04-21 09:34 | 58.80579 | 17.88049 | 15552 ft | 296 kts | 16° |
| 2026-04-21 09:34 | 58.82524 | 17.89353 | 15217 ft | 300 kts | 26° |
| 2026-04-21 09:34 | 58.84442 | 17.91168 | 14975 ft | 312 kts | 27° |
| 2026-04-21 09:35 | 58.86401 | 17.93022 | 14714 ft | 314 kts | 27° |
| 2026-04-21 09:35 | 58.88377 | 17.94884 | 14443 ft | 314 kts | 27° |
| 2026-04-21 09:35 | 58.90339 | 17.96727 | 14179 ft | 313 kts | 26° |
| 2026-04-21 09:35 | 58.92290 | 17.98563 | 13891 ft | 312 kts | 26° |
| 2026-04-21 09:36 | 58.94240 | 18.00401 | 13630 ft | 311 kts | 26° |
| 2026-04-21 09:36 | 58.96173 | 18.02225 | 13361 ft | 310 kts | 26° |
| 2026-04-21 09:36 | 58.98107 | 18.04057 | 13097 ft | 309 kts | 27° |
| 2026-04-21 09:36 | 59.00036 | 18.05891 | 12838 ft | 308 kts | 27° |
| 2026-04-21 09:37 | 59.01959 | 18.07727 | 12576 ft | 307 kts | 27° |
| 2026-04-21 09:37 | 59.03867 | 18.09549 | 12314 ft | 306 kts | 27° |
| 2026-04-21 09:37 | 59.05789 | 18.11388 | 12059 ft | 305 kts | 27° |
| 2026-04-21 09:37 | 59.07665 | 18.13181 | 11812 ft | 304 kts | 27° |
| 2026-04-21 09:38 | 59.09622 | 18.14750 | 11548 ft | 304 kts | 17° |
| 2026-04-21 09:38 | 59.11704 | 18.15441 | 11290 ft | 305 kts | 5° |
| 2026-04-21 09:38 | 59.13817 | 18.15664 | 11033 ft | 304 kts | 5° |
| 2026-04-21 09:38 | 59.15925 | 18.15900 | 10776 ft | 303 kts | 5° |
| 2026-04-21 09:39 | 59.17984 | 18.16137 | 10608 ft | 292 kts | 5° |
| 2026-04-21 09:39 | 59.19970 | 18.16370 | 10473 ft | 280 kts | 5° |
| 2026-04-21 09:39 | 59.21897 | 18.16597 | 10272 ft | 273 kts | 5° |
| 2026-04-21 09:39 | 59.23784 | 18.16819 | 10157 ft | 272 kts | 5° |
| 2026-04-21 09:40 | 59.25676 | 18.17045 | 9971 ft | 271 kts | 5° |
| 2026-04-21 09:40 | 59.27540 | 18.17274 | 9749 ft | 270 kts | 5° |
| 2026-04-21 09:40 | 59.29405 | 18.17503 | 9515 ft | 268 kts | 5° |
| 2026-04-21 09:40 | 59.31273 | 18.17728 | 9293 ft | 267 kts | 5° |
| 2026-04-21 09:41 | 59.33127 | 18.17948 | 9051 ft | 266 kts | 5° |
| 2026-04-21 09:41 | 59.34973 | 18.18163 | 8802 ft | 265 kts | 5° |
| 2026-04-21 09:41 | 59.36815 | 18.18376 | 8591 ft | 264 kts | 5° |
| 2026-04-21 09:41 | 59.38628 | 18.18587 | 8359 ft | 263 kts | 5° |
| 2026-04-21 09:42 | 59.40456 | 18.18802 | 8128 ft | 262 kts | 5° |
| 2026-04-21 09:42 | 59.42282 | 18.19020 | 7896 ft | 261 kts | 5° |
| 2026-04-21 09:42 | 59.44089 | 18.19241 | 7677 ft | 260 kts | 5° |
| 2026-04-21 09:42 | 59.45896 | 18.19461 | 7438 ft | 259 kts | 5° |
| 2026-04-21 09:43 | 59.47674 | 18.19673 | 7215 ft | 258 kts | 4° |
| 2026-04-21 09:43 | 59.48888 | 18.19816 | 7061 ft | 257 kts | 5° |
| 2026-04-21 09:43 | 59.51251 | 18.19966 | 6752 ft | 257 kts | 355° |
| 2026-04-21 09:43 | 59.52980 | 18.19066 | 6519 ft | 259 kts | 338° |
| 2026-04-21 09:44 | 59.54479 | 18.17122 | 6240 ft | 261 kts | 320° |
| 2026-04-21 09:44 | 59.55689 | 18.14382 | 5965 ft | 262 kts | 313° |
| 2026-04-21 09:44 | 59.56448 | 18.12566 | 5792 ft | 262 kts | 313° |
| 2026-04-21 09:44 | 59.58017 | 18.08837 | 5199 ft | 263 kts | 313° |
| 2026-04-21 09:45 | 59.59166 | 18.06118 | 4831 ft | 259 kts | 313° |
| 2026-04-21 09:45 | 59.59940 | 18.04284 | 4646 ft | 256 kts | 313° |
| 2026-04-21 09:45 | 59.61058 | 18.01601 | 4375 ft | 255 kts | 310° |
| 2026-04-21 09:45 | 59.61789 | 17.98398 | 4103 ft | 260 kts | 284° |
| 2026-04-21 09:46 | 59.61496 | 17.93685 | 3745 ft | 268 kts | 247° |
| 2026-04-21 09:46 | 59.60787 | 17.91627 | 3506 ft | 271 kts | 227° |
| 2026-04-21 09:46 | 59.59216 | 17.89679 | 3322 ft | 263 kts | 198° |
| 2026-04-21 09:46 | 59.57473 | 17.89001 | 3164 ft | 253 kts | 188° |
| 2026-04-21 09:47 | 59.55747 | 17.88443 | 2863 ft | 249 kts | 189° |
| 2026-04-21 09:47 | 59.54051 | 17.87854 | 2716 ft | 243 kts | 190° |
| 2026-04-21 09:47 | 59.52422 | 17.87275 | 2644 ft | 232 kts | 191° |
| 2026-04-21 09:47 | 59.50853 | 17.86711 | 2598 ft | 228 kts | 190° |
| 2026-04-21 09:48 | 59.49322 | 17.86173 | 2569 ft | 217 kts | 190° |
| 2026-04-21 09:48 | 59.47881 | 17.85663 | 2598 ft | 205 kts | 190° |
| 2026-04-21 09:48 | 59.46501 | 17.85176 | 2512 ft | 195 kts | 190° |
| 2026-04-21 09:48 | 59.45227 | 17.84726 | 2457 ft | 180 kts | 191° |
| 2026-04-21 09:49 | 59.44056 | 17.84315 | 2509 ft | 163 kts | 190° |
| 2026-04-21 09:49 | 59.42944 | 17.84046 | 2545 ft | 160 kts | 173° |
| 2026-04-21 09:49 | 59.41923 | 17.84677 | 2520 ft | 152 kts | 142° |
| 2026-04-21 09:49 | 59.41189 | 17.86109 | 2522 ft | 146 kts | 115° |
| 2026-04-21 09:50 | 59.40868 | 17.87940 | 2549 ft | 141 kts | 88° |
| 2026-04-21 09:50 | 59.40893 | 17.89177 | 2507 ft | 135 kts | 72° |
| 2026-04-21 09:50 | 59.41942 | 17.92584 | 2824 ft | 125 kts | 7° |
| 2026-04-21 09:51 | 59.42773 | 17.92125 | 2894 ft | 132 kts | 334° |
| 2026-04-21 09:51 | 59.43603 | 17.91510 | 2846 ft | 126 kts | 1° |
| 2026-04-21 09:51 | 59.44481 | 17.91558 | 2880 ft | 128 kts | 2° |
| 2026-04-21 09:51 | 59.45344 | 17.91199 | 2892 ft | 132 kts | 329° |
| 2026-04-21 09:52 | 59.46103 | 17.90204 | 2873 ft | 127 kts | 339° |
| 2026-04-21 09:52 | 59.46919 | 17.89547 | 2872 ft | 128 kts | 341° |
| 2026-04-21 09:52 | 59.47751 | 17.88913 | 2872 ft | 128 kts | 342° |
| 2026-04-21 09:52 | 59.48582 | 17.88269 | 2869 ft | 129 kts | 341° |
| 2026-04-21 09:53 | 59.49406 | 17.87619 | 2876 ft | 129 kts | 342° |
| 2026-04-21 09:53 | 59.50238 | 17.86969 | 2834 ft | 128 kts | 344° |
| 2026-04-21 09:53 | 59.51111 | 17.86743 | 2850 ft | 127 kts | 3° |
| 2026-04-21 09:53 | 59.51989 | 17.87065 | 2845 ft | 132 kts | 12° |
| 2026-04-21 09:54 | 59.52885 | 17.87415 | 2815 ft | 129 kts | 10° |
| 2026-04-21 09:54 | 59.53762 | 17.87735 | 2840 ft | 130 kts | 11° |
| 2026-04-21 09:54 | 59.54659 | 17.88056 | 2817 ft | 129 kts | 9° |
| 2026-04-21 09:54 | 59.55529 | 17.88368 | 2844 ft | 128 kts | 10° |
| 2026-04-21 09:55 | 59.56415 | 17.88661 | 2733 ft | 129 kts | 7° |
| 2026-04-21 09:55 | 59.57308 | 17.88898 | 2490 ft | 130 kts | 8° |
| 2026-04-21 09:55 | 59.58192 | 17.89211 | 2261 ft | 129 kts | 11° |
| 2026-04-21 09:55 | 59.59062 | 17.89593 | 1972 ft | 128 kts | 12° |
| 2026-04-21 09:56 | 59.59932 | 17.89993 | 1621 ft | 129 kts | 11° |
| 2026-04-21 09:56 | 59.60814 | 17.90357 | 1262 ft | 130 kts | 9° |
| 2026-04-21 09:56 | 59.61696 | 17.90654 | 898 ft | 131 kts | 8° |
| 2026-04-21 09:56 | 59.62605 | 17.90951 | 603 ft | 130 kts | 7° |
| 2026-04-21 09:57 | 59.63488 | 17.91247 | 275 ft | 130 kts | 6° |
| 2026-04-21 09:57 | 59.64351 | 17.91559 | 146 ft | 121 kts | 6° |
| 2026-04-21 09:57 | 59.64835 | 17.91719 | 145 ft | 40 kts | 8° |
| 2026-04-21 09:57 | 59.65033 | 17.91790 | 143 ft | 28 kts | 11° |
| 2026-04-21 09:58 | 59.65187 | 17.91919 | 143 ft | 16 kts | 31° |
| 2026-04-21 09:58 | 59.65266 | 17.92048 | 140 ft | 17 kts | 39° |
| 2026-04-21 09:58 | 59.65324 | 17.92166 | 139 ft | 3 kts | 69° |
| 2026-04-21 09:58 | 59.65326 | 17.92204 | 138 ft | 3 kts | 94° |
| 2026-04-21 09:59 | 59.65322 | 17.92245 | 138 ft | 3 kts | 102° |
| 2026-04-21 09:59 | 59.65315 | 17.92287 | 138 ft | 3 kts | 110° |
| 2026-04-21 09:59 | 59.65308 | 17.92326 | 138 ft | 3 kts | 111° |
| 2026-04-21 09:59 | 59.65294 | 17.92397 | 138 ft | 7 kts | 111° |
| 2026-04-21 10:00 | 59.65276 | 17.92485 | 138 ft | 7 kts | 112° |
| 2026-04-21 10:00 | 59.65259 | 17.92567 | 138 ft | 6 kts | 111° |
| 2026-04-21 10:00 | 59.65244 | 17.92645 | 138 ft | 6 kts | 110° |
| 2026-04-21 10:00 | 59.65230 | 17.92719 | 138 ft | 6 kts | 108° |
| 2026-04-21 10:01 | 59.65213 | 17.92830 | 138 ft | 8 kts | 110° |
| 2026-04-21 10:01 | 59.65187 | 17.92917 | 138 ft | 6 kts | 113° |
| 2026-04-21 10:01 | 59.65195 | 17.92991 | 138 ft | 5 kts | 68° |
| 2026-04-21 10:01 | 59.65201 | 17.93015 | 138 ft | 1 kts | 66° |
| 2026-04-21 10:02 | 59.65201 | 17.93017 | 138 ft | 0 kts | 66° |